sensor_id;sensor_type;location;lat;lon;timestamp;P1;durP1;ratioP1;P2;durP2;ratioP2
52102;SDS011;38101;53.126;6.878;2023-08-17T00:00:10;4.20;;;2.17;;
52102;SDS011;38101;53.126;6.878;2023-08-17T00:02:39;3.53;;;2.10;;
52102;SDS011;38101;53.126;6.878;2023-08-17T00:05:05;4.32;;;2.20;;
52102;SDS011;38101;53.126;6.878;2023-08-17T00:07:34;6.20;;;2.30;;
52102;SDS011;38101;53.126;6.878;2023-08-17T00:09:59;3.63;;;2.10;;
52102;SDS011;38101;53.126;6.878;2023-08-17T00:12:25;4.65;;;2.20;;
52102;SDS011;38101;53.126;6.878;2023-08-17T00:14:52;4.90;;;2.40;;
52102;SDS011;38101;53.126;6.878;2023-08-17T00:17:17;3.83;;;2.33;;
52102;SDS011;38101;53.126;6.878;2023-08-17T00:19:44;4.05;;;2.10;;
52102;SDS011;38101;53.126;6.878;2023-08-17T00:22:09;7.45;;;2.70;;
52102;SDS011;38101;53.126;6.878;2023-08-17T00:24:35;4.10;;;2.45;;
52102;SDS011;38101;53.126;6.878;2023-08-17T00:27:01;6.72;;;2.75;;
52102;SDS011;38101;53.126;6.878;2023-08-17T00:29:26;4.32;;;2.22;;
52102;SDS011;38101;53.126;6.878;2023-08-17T00:31:52;4.97;;;2.30;;
52102;SDS011;38101;53.126;6.878;2023-08-17T00:34:18;4.78;;;2.30;;
52102;SDS011;38101;53.126;6.878;2023-08-17T00:36:44;4.75;;;2.50;;
52102;SDS011;38101;53.126;6.878;2023-08-17T00:39:10;4.80;;;2.30;;
52102;SDS011;38101;53.126;6.878;2023-08-17T00:41:35;6.60;;;2.40;;
52102;SDS011;38101;53.126;6.878;2023-08-17T00:44:01;3.90;;;2.40;;
52102;SDS011;38101;53.126;6.878;2023-08-17T00:46:27;4.70;;;2.10;;
52102;SDS011;38101;53.126;6.878;2023-08-17T00:48:54;4.13;;;2.10;;
52102;SDS011;38101;53.126;6.878;2023-08-17T00:51:21;2.92;;;2.10;;
52102;SDS011;38101;53.126;6.878;2023-08-17T00:53:48;3.50;;;2.10;;
52102;SDS011;38101;53.126;6.878;2023-08-17T00:56:20;8.30;;;2.58;;
52102;SDS011;38101;53.126;6.878;2023-08-17T00:58:46;3.58;;;2.45;;
52102;SDS011;38101;53.126;6.878;2023-08-17T01:01:11;4.75;;;2.22;;
52102;SDS011;38101;53.126;6.878;2023-08-17T01:03:39;6.35;;;2.13;;
52102;SDS011;38101;53.126;6.878;2023-08-17T01:06:05;5.03;;;2.30;;
52102;SDS011;38101;53.126;6.878;2023-08-17T01:08:31;4.15;;;2.30;;
52102;SDS011;38101;53.126;6.878;2023-08-17T01:13:53;5.82;;;2.38;;
52102;SDS011;38101;53.126;6.878;2023-08-17T01:16:29;3.63;;;2.10;;
52102;SDS011;38101;53.126;6.878;2023-08-17T01:19:00;5.82;;;2.50;;
52102;SDS011;38101;53.126;6.878;2023-08-17T01:21:37;3.92;;;2.55;;
52102;SDS011;38101;53.126;6.878;2023-08-17T01:24:08;5.68;;;2.38;;
52102;SDS011;38101;53.126;6.878;2023-08-17T01:26:33;3.35;;;2.50;;
52102;SDS011;38101;53.126;6.878;2023-08-17T01:28:59;5.80;;;2.70;;
52102;SDS011;38101;53.126;6.878;2023-08-17T01:31:30;6.63;;;2.85;;
52102;SDS011;38101;53.126;6.878;2023-08-17T01:34:06;6.28;;;3.22;;
52102;SDS011;38101;53.126;6.878;2023-08-17T01:36:37;4.30;;;2.70;;
52102;SDS011;38101;53.126;6.878;2023-08-17T01:39:07;4.57;;;2.92;;
52102;SDS011;38101;53.126;6.878;2023-08-17T01:41:35;6.20;;;2.90;;
52102;SDS011;38101;53.126;6.878;2023-08-17T01:44:02;6.90;;;3.85;;
52102;SDS011;38101;53.126;6.878;2023-08-17T01:46:32;6.35;;;3.90;;
52102;SDS011;38101;53.126;6.878;2023-08-17T01:48:58;6.00;;;3.60;;
52102;SDS011;38101;53.126;6.878;2023-08-17T01:51:24;5.93;;;3.83;;
52102;SDS011;38101;53.126;6.878;2023-08-17T01:53:50;4.07;;;3.03;;
52102;SDS011;38101;53.126;6.878;2023-08-17T01:56:16;7.78;;;3.95;;
52102;SDS011;38101;53.126;6.878;2023-08-17T01:58:42;6.43;;;3.42;;
52102;SDS011;38101;53.126;6.878;2023-08-17T02:01:08;6.57;;;3.50;;
52102;SDS011;38101;53.126;6.878;2023-08-17T02:03:34;5.43;;;3.17;;
52102;SDS011;38101;53.126;6.878;2023-08-17T02:05:59;6.72;;;3.13;;
52102;SDS011;38101;53.126;6.878;2023-08-17T02:08:25;6.18;;;3.50;;
52102;SDS011;38101;53.126;6.878;2023-08-17T02:10:51;4.90;;;3.40;;
52102;SDS011;38101;53.126;6.878;2023-08-17T02:13:17;9.40;;;2.95;;
52102;SDS011;38101;53.126;6.878;2023-08-17T02:15:43;6.75;;;2.92;;
52102;SDS011;38101;53.126;6.878;2023-08-17T02:18:09;5.13;;;3.00;;
52102;SDS011;38101;53.126;6.878;2023-08-17T02:20:35;5.55;;;2.78;;
52102;SDS011;38101;53.126;6.878;2023-08-17T02:23:01;3.63;;;2.70;;
52102;SDS011;38101;53.126;6.878;2023-08-17T02:25:27;5.80;;;2.53;;
52102;SDS011;38101;53.126;6.878;2023-08-17T02:27:59;4.72;;;2.90;;
52102;SDS011;38101;53.126;6.878;2023-08-17T02:30:25;5.32;;;2.92;;
52102;SDS011;38101;53.126;6.878;2023-08-17T02:32:51;4.78;;;2.88;;
52102;SDS011;38101;53.126;6.878;2023-08-17T02:35:16;7.72;;;2.97;;
52102;SDS011;38101;53.126;6.878;2023-08-17T02:37:42;5.20;;;3.10;;
52102;SDS011;38101;53.126;6.878;2023-08-17T02:40:08;4.80;;;2.70;;
52102;SDS011;38101;53.126;6.878;2023-08-17T02:42:34;4.60;;;2.70;;
52102;SDS011;38101;53.126;6.878;2023-08-17T02:44:59;5.88;;;2.60;;
52102;SDS011;38101;53.126;6.878;2023-08-17T02:47:25;4.22;;;2.60;;
52102;SDS011;38101;53.126;6.878;2023-08-17T02:49:51;4.85;;;3.00;;
52102;SDS011;38101;53.126;6.878;2023-08-17T02:52:16;6.75;;;3.15;;
52102;SDS011;38101;53.126;6.878;2023-08-17T02:54:42;7.30;;;3.58;;
52102;SDS011;38101;53.126;6.878;2023-08-17T02:57:08;6.20;;;3.75;;
52102;SDS011;38101;53.126;6.878;2023-08-17T02:59:33;6.20;;;3.72;;
52102;SDS011;38101;53.126;6.878;2023-08-17T03:01:59;5.15;;;3.75;;
52102;SDS011;38101;53.126;6.878;2023-08-17T03:04:25;6.93;;;4.35;;
52102;SDS011;38101;53.126;6.878;2023-08-17T03:06:50;5.90;;;3.65;;
52102;SDS011;38101;53.126;6.878;2023-08-17T03:09:16;5.57;;;3.72;;
52102;SDS011;38101;53.126;6.878;2023-08-17T03:11:42;5.60;;;2.88;;
52102;SDS011;38101;53.126;6.878;2023-08-17T03:14:07;5.65;;;2.90;;
52102;SDS011;38101;53.126;6.878;2023-08-17T03:16:33;5.78;;;3.10;;
52102;SDS011;38101;53.126;6.878;2023-08-17T03:18:59;4.93;;;3.22;;
52102;SDS011;38101;53.126;6.878;2023-08-17T03:21:24;6.97;;;3.83;;
52102;SDS011;38101;53.126;6.878;2023-08-17T03:23:50;4.70;;;3.22;;
52102;SDS011;38101;53.126;6.878;2023-08-17T03:26:17;5.82;;;2.92;;
52102;SDS011;38101;53.126;6.878;2023-08-17T03:28:42;4.40;;;2.90;;
52102;SDS011;38101;53.126;6.878;2023-08-17T03:31:08;5.45;;;2.90;;
52102;SDS011;38101;53.126;6.878;2023-08-17T03:33:35;6.32;;;2.78;;
52102;SDS011;38101;53.126;6.878;2023-08-17T03:36:01;6.78;;;3.00;;
52102;SDS011;38101;53.126;6.878;2023-08-17T03:38:27;4.72;;;2.58;;
52102;SDS011;38101;53.126;6.878;2023-08-17T03:40:53;6.10;;;2.95;;
52102;SDS011;38101;53.126;6.878;2023-08-17T03:43:19;5.13;;;2.53;;
52102;SDS011;38101;53.126;6.878;2023-08-17T03:45:45;5.50;;;2.83;;
52102;SDS011;38101;53.126;6.878;2023-08-17T03:48:11;4.60;;;2.60;;
52102;SDS011;38101;53.126;6.878;2023-08-17T03:50:37;6.47;;;2.83;;
52102;SDS011;38101;53.126;6.878;2023-08-17T03:53:03;5.10;;;2.55;;
52102;SDS011;38101;53.126;6.878;2023-08-17T03:55:29;6.95;;;2.55;;
52102;SDS011;38101;53.126;6.878;2023-08-17T03:57:55;3.55;;;2.17;;
52102;SDS011;38101;53.126;6.878;2023-08-17T04:00:21;4.43;;;2.60;;
52102;SDS011;38101;53.126;6.878;2023-08-17T04:02:46;7.35;;;2.50;;
52102;SDS011;38101;53.126;6.878;2023-08-17T04:05:12;4.20;;;2.47;;
52102;SDS011;38101;53.126;6.878;2023-08-17T04:07:38;4.45;;;2.75;;
52102;SDS011;38101;53.126;6.878;2023-08-17T04:10:07;7.63;;;2.65;;
52102;SDS011;38101;53.126;6.878;2023-08-17T04:12:33;7.35;;;2.50;;
52102;SDS011;38101;53.126;6.878;2023-08-17T04:14:59;7.97;;;2.50;;
52102;SDS011;38101;53.126;6.878;2023-08-17T04:17:25;5.65;;;2.78;;
52102;SDS011;38101;53.126;6.878;2023-08-17T04:19:51;5.97;;;2.60;;
52102;SDS011;38101;53.126;6.878;2023-08-17T04:22:17;5.20;;;2.40;;
52102;SDS011;38101;53.126;6.878;2023-08-17T04:24:43;7.05;;;2.80;;
52102;SDS011;38101;53.126;6.878;2023-08-17T04:27:08;4.82;;;2.50;;
52102;SDS011;38101;53.126;6.878;2023-08-17T04:29:34;5.28;;;2.50;;
52102;SDS011;38101;53.126;6.878;2023-08-17T04:32:00;4.80;;;2.70;;
52102;SDS011;38101;53.126;6.878;2023-08-17T04:34:25;6.75;;;2.40;;
52102;SDS011;38101;53.126;6.878;2023-08-17T04:36:51;5.78;;;2.70;;
52102;SDS011;38101;53.126;6.878;2023-08-17T04:39:17;4.70;;;2.47;;
52102;SDS011;38101;53.126;6.878;2023-08-17T04:41:42;4.30;;;2.10;;
52102;SDS011;38101;53.126;6.878;2023-08-17T04:44:08;6.82;;;2.80;;
52102;SDS011;38101;53.126;6.878;2023-08-17T04:46:34;5.18;;;2.15;;
52102;SDS011;38101;53.126;6.878;2023-08-17T04:49:00;5.40;;;2.70;;
52102;SDS011;38101;53.126;6.878;2023-08-17T04:51:26;5.20;;;2.58;;
52102;SDS011;38101;53.126;6.878;2023-08-17T04:53:52;5.38;;;2.70;;
52102;SDS011;38101;53.126;6.878;2023-08-17T04:56:18;7.15;;;2.88;;
52102;SDS011;38101;53.126;6.878;2023-08-17T04:58:43;5.85;;;2.47;;
52102;SDS011;38101;53.126;6.878;2023-08-17T05:01:09;4.70;;;2.70;;
52102;SDS011;38101;53.126;6.878;2023-08-17T05:03:35;5.20;;;2.80;;
52102;SDS011;38101;53.126;6.878;2023-08-17T05:06:01;6.15;;;2.28;;
52102;SDS011;38101;53.126;6.878;2023-08-17T05:08:27;4.00;;;2.45;;
52102;SDS011;38101;53.126;6.878;2023-08-17T05:10:53;6.22;;;2.92;;
52102;SDS011;38101;53.126;6.878;2023-08-17T05:13:18;4.47;;;2.40;;
52102;SDS011;38101;53.126;6.878;2023-08-17T05:15:44;4.68;;;2.50;;
52102;SDS011;38101;53.126;6.878;2023-08-17T05:18:10;5.22;;;2.17;;
52102;SDS011;38101;53.126;6.878;2023-08-17T05:20:35;6.28;;;2.90;;
52102;SDS011;38101;53.126;6.878;2023-08-17T05:23:01;4.38;;;2.40;;
52102;SDS011;38101;53.126;6.878;2023-08-17T05:25:27;4.80;;;2.40;;
52102;SDS011;38101;53.126;6.878;2023-08-17T05:27:54;6.55;;;2.75;;
52102;SDS011;38101;53.126;6.878;2023-08-17T05:30:20;4.47;;;2.22;;
52102;SDS011;38101;53.126;6.878;2023-08-17T05:32:46;6.63;;;2.80;;
52102;SDS011;38101;53.126;6.878;2023-08-17T05:35:12;6.95;;;2.40;;
52102;SDS011;38101;53.126;6.878;2023-08-17T05:37:37;4.32;;;2.25;;
52102;SDS011;38101;53.126;6.878;2023-08-17T05:40:03;5.85;;;2.75;;
52102;SDS011;38101;53.126;6.878;2023-08-17T05:42:30;5.70;;;2.63;;
52102;SDS011;38101;53.126;6.878;2023-08-17T05:44:55;4.75;;;2.65;;
52102;SDS011;38101;53.126;6.878;2023-08-17T05:47:21;5.00;;;2.70;;
52102;SDS011;38101;53.126;6.878;2023-08-17T05:49:47;7.35;;;2.70;;
52102;SDS011;38101;53.126;6.878;2023-08-17T05:52:12;8.43;;;2.83;;
52102;SDS011;38101;53.126;6.878;2023-08-17T05:54:38;4.53;;;2.25;;
52102;SDS011;38101;53.126;6.878;2023-08-17T05:57:04;3.95;;;2.25;;
52102;SDS011;38101;53.126;6.878;2023-08-17T05:59:30;5.50;;;2.75;;
52102;SDS011;38101;53.126;6.878;2023-08-17T06:01:56;7.63;;;2.70;;
52102;SDS011;38101;53.126;6.878;2023-08-17T06:04:21;4.95;;;2.50;;
52102;SDS011;38101;53.126;6.878;2023-08-17T06:06:47;4.97;;;2.40;;
52102;SDS011;38101;53.126;6.878;2023-08-17T06:09:13;7.53;;;2.42;;
52102;SDS011;38101;53.126;6.878;2023-08-17T06:11:39;4.97;;;2.50;;
52102;SDS011;38101;53.126;6.878;2023-08-17T06:14:06;5.70;;;2.83;;
52102;SDS011;38101;53.126;6.878;2023-08-17T06:16:32;3.72;;;2.40;;
52102;SDS011;38101;53.126;6.878;2023-08-17T06:18:57;4.57;;;2.40;;
52102;SDS011;38101;53.126;6.878;2023-08-17T06:21:23;4.10;;;2.28;;
52102;SDS011;38101;53.126;6.878;2023-08-17T06:23:49;4.38;;;2.70;;
52102;SDS011;38101;53.126;6.878;2023-08-17T06:26:14;5.80;;;2.60;;
52102;SDS011;38101;53.126;6.878;2023-08-17T06:28:40;5.40;;;2.30;;
52102;SDS011;38101;53.126;6.878;2023-08-17T06:31:06;4.70;;;2.38;;
52102;SDS011;38101;53.126;6.878;2023-08-17T06:33:31;6.90;;;2.25;;
52102;SDS011;38101;53.126;6.878;2023-08-17T06:35:58;5.07;;;2.13;;
52102;SDS011;38101;53.126;6.878;2023-08-17T06:38:23;4.28;;;2.28;;
52102;SDS011;38101;53.126;6.878;2023-08-17T06:40:50;4.78;;;2.38;;
52102;SDS011;38101;53.126;6.878;2023-08-17T06:43:17;3.80;;;2.10;;
52102;SDS011;38101;53.126;6.878;2023-08-17T06:45:43;2.95;;;2.00;;
52102;SDS011;38101;53.126;6.878;2023-08-17T06:48:09;4.05;;;2.45;;
52102;SDS011;38101;53.126;6.878;2023-08-17T06:50:34;6.32;;;2.08;;
52102;SDS011;38101;53.126;6.878;2023-08-17T06:53:01;4.68;;;2.25;;
52102;SDS011;38101;53.126;6.878;2023-08-17T06:55:27;5.15;;;2.20;;
52102;SDS011;38101;53.126;6.878;2023-08-17T06:57:53;6.78;;;2.22;;
52102;SDS011;38101;53.126;6.878;2023-08-17T07:00:20;5.97;;;2.30;;
52102;SDS011;38101;53.126;6.878;2023-08-17T07:02:46;3.67;;;2.30;;
52102;SDS011;38101;53.126;6.878;2023-08-17T07:05:16;6.15;;;2.10;;
52102;SDS011;38101;53.126;6.878;2023-08-17T07:07:41;5.18;;;2.47;;
52102;SDS011;38101;53.126;6.878;2023-08-17T07:10:08;4.80;;;1.90;;
52102;SDS011;38101;53.126;6.878;2023-08-17T07:12:35;4.78;;;1.98;;
52102;SDS011;38101;53.126;6.878;2023-08-17T07:15:02;3.60;;;2.08;;
52102;SDS011;38101;53.126;6.878;2023-08-17T07:17:29;3.97;;;1.80;;
52102;SDS011;38101;53.126;6.878;2023-08-17T07:19:55;5.38;;;1.80;;
52102;SDS011;38101;53.126;6.878;2023-08-17T07:22:20;2.60;;;1.80;;
52102;SDS011;38101;53.126;6.878;2023-08-17T07:24:46;5.50;;;2.10;;
52102;SDS011;38101;53.126;6.878;2023-08-17T07:27:12;4.57;;;2.30;;
52102;SDS011;38101;53.126;6.878;2023-08-17T07:29:37;4.50;;;1.77;;
52102;SDS011;38101;53.126;6.878;2023-08-17T07:32:03;4.97;;;1.90;;
52102;SDS011;38101;53.126;6.878;2023-08-17T07:34:29;3.50;;;1.80;;
52102;SDS011;38101;53.126;6.878;2023-08-17T07:36:56;3.20;;;1.90;;
52102;SDS011;38101;53.126;6.878;2023-08-17T07:39:22;4.53;;;1.85;;
52102;SDS011;38101;53.126;6.878;2023-08-17T07:41:48;6.80;;;1.67;;
52102;SDS011;38101;53.126;6.878;2023-08-17T07:44:14;3.22;;;1.80;;
52102;SDS011;38101;53.126;6.878;2023-08-17T07:46:40;4.10;;;1.73;;
52102;SDS011;38101;53.126;6.878;2023-08-17T07:49:06;4.32;;;2.05;;
52102;SDS011;38101;53.126;6.878;2023-08-17T07:51:31;4.47;;;1.92;;
52102;SDS011;38101;53.126;6.878;2023-08-17T07:53:59;4.07;;;1.90;;
52102;SDS011;38101;53.126;6.878;2023-08-17T07:56:25;3.38;;;1.85;;
52102;SDS011;38101;53.126;6.878;2023-08-17T07:58:53;4.50;;;1.63;;
52102;SDS011;38101;53.126;6.878;2023-08-17T08:01:18;5.38;;;2.05;;
52102;SDS011;38101;53.126;6.878;2023-08-17T08:03:44;6.88;;;2.00;;
52102;SDS011;38101;53.126;6.878;2023-08-17T08:06:10;3.20;;;2.00;;
52102;SDS011;38101;53.126;6.878;2023-08-17T08:08:35;6.32;;;2.45;;
52102;SDS011;38101;53.126;6.878;2023-08-17T08:11:01;3.85;;;1.77;;
52102;SDS011;38101;53.126;6.878;2023-08-17T08:13:29;3.60;;;2.10;;
52102;SDS011;38101;53.126;6.878;2023-08-17T08:15:55;5.88;;;2.05;;
52102;SDS011;38101;53.126;6.878;2023-08-17T08:18:22;4.85;;;2.20;;
52102;SDS011;38101;53.126;6.878;2023-08-17T08:20:48;6.75;;;2.13;;
52102;SDS011;38101;53.126;6.878;2023-08-17T08:23:14;3.88;;;2.38;;
52102;SDS011;38101;53.126;6.878;2023-08-17T08:25:40;5.28;;;2.15;;
52102;SDS011;38101;53.126;6.878;2023-08-17T08:28:06;6.90;;;2.47;;
52102;SDS011;38101;53.126;6.878;2023-08-17T08:30:32;5.60;;;2.60;;
52102;SDS011;38101;53.126;6.878;2023-08-17T08:32:57;5.00;;;2.90;;
52102;SDS011;38101;53.126;6.878;2023-08-17T08:35:24;4.88;;;3.22;;
52102;SDS011;38101;53.126;6.878;2023-08-17T08:37:50;4.85;;;2.80;;
52102;SDS011;38101;53.126;6.878;2023-08-17T08:40:16;22.52;;;4.28;;
52102;SDS011;38101;53.126;6.878;2023-08-17T08:42:43;4.15;;;2.55;;
52102;SDS011;38101;53.126;6.878;2023-08-17T08:45:09;5.13;;;2.75;;
52102;SDS011;38101;53.126;6.878;2023-08-17T08:47:38;7.57;;;2.78;;
52102;SDS011;38101;53.126;6.878;2023-08-17T08:50:06;4.63;;;2.65;;
52102;SDS011;38101;53.126;6.878;2023-08-17T08:52:42;3.88;;;2.30;;
52102;SDS011;38101;53.126;6.878;2023-08-17T08:55:15;3.30;;;2.10;;
52102;SDS011;38101;53.126;6.878;2023-08-17T08:57:43;3.65;;;2.20;;
52102;SDS011;38101;53.126;6.878;2023-08-17T09:00:09;3.28;;;1.80;;
52102;SDS011;38101;53.126;6.878;2023-08-17T09:02:37;6.15;;;2.08;;
52102;SDS011;38101;53.126;6.878;2023-08-17T09:05:04;5.65;;;2.13;;
52102;SDS011;38101;53.126;6.878;2023-08-17T09:07:31;4.70;;;1.90;;
52102;SDS011;38101;53.126;6.878;2023-08-17T09:09:57;3.97;;;1.83;;
52102;SDS011;38101;53.126;6.878;2023-08-17T09:12:24;3.08;;;2.08;;
52102;SDS011;38101;53.126;6.878;2023-08-17T09:14:50;3.28;;;1.77;;
52102;SDS011;38101;53.126;6.878;2023-08-17T09:17:25;7.00;;;2.60;;
52102;SDS011;38101;53.126;6.878;2023-08-17T09:19:52;4.70;;;2.00;;
52102;SDS011;38101;53.126;6.878;2023-08-17T09:22:24;6.15;;;2.38;;
52102;SDS011;38101;53.126;6.878;2023-08-17T09:24:59;5.68;;;2.42;;
52102;SDS011;38101;53.126;6.878;2023-08-17T09:27:25;8.20;;;2.40;;
52102;SDS011;38101;53.126;6.878;2023-08-17T09:29:51;3.58;;;1.90;;
52102;SDS011;38101;53.126;6.878;2023-08-17T09:32:16;5.28;;;2.05;;
52102;SDS011;38101;53.126;6.878;2023-08-17T09:34:43;4.00;;;2.15;;
52102;SDS011;38101;53.126;6.878;2023-08-17T09:37:09;5.32;;;1.90;;
52102;SDS011;38101;53.126;6.878;2023-08-17T09:39:38;3.90;;;1.88;;
52102;SDS011;38101;53.126;6.878;2023-08-17T09:42:03;6.70;;;2.53;;
52102;SDS011;38101;53.126;6.878;2023-08-17T09:44:30;3.22;;;1.80;;
52102;SDS011;38101;53.126;6.878;2023-08-17T09:46:58;4.03;;;2.35;;
52102;SDS011;38101;53.126;6.878;2023-08-17T09:49:24;5.30;;;1.98;;
52102;SDS011;38101;53.126;6.878;2023-08-17T09:51:50;6.55;;;2.28;;
52102;SDS011;38101;53.126;6.878;2023-08-17T09:54:23;5.45;;;1.90;;
52102;SDS011;38101;53.126;6.878;2023-08-17T09:56:52;5.13;;;2.00;;
52102;SDS011;38101;53.126;6.878;2023-08-17T09:59:19;3.72;;;1.85;;
52102;SDS011;38101;53.126;6.878;2023-08-17T10:01:47;4.47;;;2.20;;
52102;SDS011;38101;53.126;6.878;2023-08-17T10:04:14;4.03;;;2.20;;
52102;SDS011;38101;53.126;6.878;2023-08-17T10:06:45;3.67;;;1.85;;
52102;SDS011;38101;53.126;6.878;2023-08-17T10:09:15;5.00;;;1.85;;
52102;SDS011;38101;53.126;6.878;2023-08-17T10:11:54;4.85;;;2.20;;
52102;SDS011;38101;53.126;6.878;2023-08-17T10:14:25;3.25;;;1.77;;
52102;SDS011;38101;53.126;6.878;2023-08-17T10:17:07;4.20;;;1.90;;
52102;SDS011;38101;53.126;6.878;2023-08-17T10:19:46;4.95;;;2.00;;
52102;SDS011;38101;53.126;6.878;2023-08-17T10:23:00;3.70;;;2.00;;
52102;SDS011;38101;53.126;6.878;2023-08-17T10:25:13;4.68;;;2.10;;
52102;SDS011;38101;53.126;6.878;2023-08-17T10:27:40;4.15;;;2.10;;
52102;SDS011;38101;53.126;6.878;2023-08-17T10:30:08;3.75;;;1.98;;
52102;SDS011;38101;53.126;6.878;2023-08-17T10:32:35;3.72;;;1.70;;
52102;SDS011;38101;53.126;6.878;2023-08-17T10:35:01;5.32;;;2.40;;
52102;SDS011;38101;53.126;6.878;2023-08-17T10:37:29;4.68;;;2.28;;
52102;SDS011;38101;53.126;6.878;2023-08-17T10:39:55;3.28;;;1.80;;
52102;SDS011;38101;53.126;6.878;2023-08-17T10:42:34;4.38;;;1.92;;
52102;SDS011;38101;53.126;6.878;2023-08-17T10:45:01;3.70;;;1.85;;
52102;SDS011;38101;53.126;6.878;2023-08-17T10:47:46;4.75;;;2.50;;
52102;SDS011;38101;53.126;6.878;2023-08-17T10:50:22;3.58;;;1.85;;
52102;SDS011;38101;53.126;6.878;2023-08-17T10:52:49;4.85;;;2.25;;
52102;SDS011;38101;53.126;6.878;2023-08-17T10:55:16;4.07;;;2.00;;
52102;SDS011;38101;53.126;6.878;2023-08-17T10:57:43;2.97;;;1.90;;
52102;SDS011;38101;53.126;6.878;2023-08-17T11:02:58;4.25;;;2.05;;
52102;SDS011;38101;53.126;6.878;2023-08-17T11:05:41;4.90;;;2.00;;
52102;SDS011;38101;53.126;6.878;2023-08-17T11:08:28;5.68;;;2.20;;
52102;SDS011;38101;53.126;6.878;2023-08-17T11:13:29;3.33;;;2.35;;
52102;SDS011;38101;53.126;6.878;2023-08-17T11:15:57;3.50;;;2.17;;
52102;SDS011;38101;53.126;6.878;2023-08-17T11:18:23;5.03;;;2.35;;
52102;SDS011;38101;53.126;6.878;2023-08-17T11:20:49;4.43;;;2.50;;
52102;SDS011;38101;53.126;6.878;2023-08-17T11:23:15;4.88;;;2.40;;
52102;SDS011;38101;53.126;6.878;2023-08-17T11:25:41;4.82;;;2.50;;
52102;SDS011;38101;53.126;6.878;2023-08-17T11:28:08;3.90;;;2.42;;
52102;SDS011;38101;53.126;6.878;2023-08-17T11:30:34;4.25;;;2.38;;
52102;SDS011;38101;53.126;6.878;2023-08-17T11:33:04;3.55;;;2.20;;
52102;SDS011;38101;53.126;6.878;2023-08-17T11:35:30;3.47;;;2.15;;
52102;SDS011;38101;53.126;6.878;2023-08-17T11:37:56;4.43;;;2.42;;
52102;SDS011;38101;53.126;6.878;2023-08-17T11:40:22;4.00;;;2.40;;
52102;SDS011;38101;53.126;6.878;2023-08-17T11:42:49;4.28;;;2.20;;
52102;SDS011;38101;53.126;6.878;2023-08-17T11:45:15;5.47;;;2.30;;
52102;SDS011;38101;53.126;6.878;2023-08-17T11:47:41;3.05;;;2.10;;
52102;SDS011;38101;53.126;6.878;2023-08-17T11:50:09;2.97;;;1.98;;
52102;SDS011;38101;53.126;6.878;2023-08-17T11:52:36;4.07;;;2.10;;
52102;SDS011;38101;53.126;6.878;2023-08-17T11:55:03;7.25;;;2.40;;
52102;SDS011;38101;53.126;6.878;2023-08-17T11:57:30;4.03;;;2.08;;
52102;SDS011;38101;53.126;6.878;2023-08-17T12:00:00;4.95;;;2.30;;
52102;SDS011;38101;53.126;6.878;2023-08-17T12:02:27;5.95;;;2.60;;
52102;SDS011;38101;53.126;6.878;2023-08-17T12:04:54;4.15;;;2.20;;
52102;SDS011;38101;53.126;6.878;2023-08-17T12:07:21;3.60;;;2.28;;
52102;SDS011;38101;53.126;6.878;2023-08-17T12:09:49;3.72;;;2.30;;
52102;SDS011;38101;53.126;6.878;2023-08-17T12:12:19;3.58;;;2.45;;
52102;SDS011;38101;53.126;6.878;2023-08-17T12:14:47;3.15;;;1.98;;
52102;SDS011;38101;53.126;6.878;2023-08-17T12:17:17;4.95;;;2.40;;
52102;SDS011;38101;53.126;6.878;2023-08-17T12:19:43;8.02;;;2.10;;
52102;SDS011;38101;53.126;6.878;2023-08-17T12:22:13;3.70;;;2.30;;
52102;SDS011;38101;53.126;6.878;2023-08-17T12:24:39;3.22;;;1.98;;
52102;SDS011;38101;53.126;6.878;2023-08-17T12:27:05;3.85;;;2.30;;
52102;SDS011;38101;53.126;6.878;2023-08-17T12:29:31;3.42;;;2.17;;
52102;SDS011;38101;53.126;6.878;2023-08-17T12:32:06;5.05;;;2.35;;
52102;SDS011;38101;53.126;6.878;2023-08-17T12:34:32;4.18;;;2.10;;
52102;SDS011;38101;53.126;6.878;2023-08-17T12:36:58;2.80;;;2.00;;
52102;SDS011;38101;53.126;6.878;2023-08-17T12:39:23;4.07;;;2.20;;
52102;SDS011;38101;53.126;6.878;2023-08-17T12:41:49;3.40;;;2.13;;
52102;SDS011;38101;53.126;6.878;2023-08-17T12:44:15;5.05;;;2.60;;
52102;SDS011;38101;53.126;6.878;2023-08-17T12:46:40;4.82;;;2.88;;
52102;SDS011;38101;53.126;6.878;2023-08-17T12:49:06;3.30;;;2.30;;
52102;SDS011;38101;53.126;6.878;2023-08-17T12:51:32;4.28;;;2.35;;
52102;SDS011;38101;53.126;6.878;2023-08-17T12:53:58;4.85;;;3.00;;
52102;SDS011;38101;53.126;6.878;2023-08-17T12:56:24;4.20;;;2.50;;
52102;SDS011;38101;53.126;6.878;2023-08-17T12:58:49;3.83;;;2.80;;
52102;SDS011;38101;53.126;6.878;2023-08-17T13:01:15;5.20;;;2.33;;
52102;SDS011;38101;53.126;6.878;2023-08-17T13:03:41;4.05;;;2.70;;
52102;SDS011;38101;53.126;6.878;2023-08-17T13:06:07;3.33;;;2.42;;
52102;SDS011;38101;53.126;6.878;2023-08-17T13:08:33;5.70;;;2.58;;
52102;SDS011;38101;53.126;6.878;2023-08-17T13:10:59;4.63;;;2.60;;
52102;SDS011;38101;53.126;6.878;2023-08-17T13:13:25;4.15;;;2.45;;
52102;SDS011;38101;53.126;6.878;2023-08-17T13:15:51;4.68;;;2.80;;
52102;SDS011;38101;53.126;6.878;2023-08-17T13:18:17;5.25;;;2.50;;
52102;SDS011;38101;53.126;6.878;2023-08-17T13:20:42;4.88;;;2.60;;
52102;SDS011;38101;53.126;6.878;2023-08-17T13:23:09;4.80;;;2.72;;
52102;SDS011;38101;53.126;6.878;2023-08-17T13:25:35;3.60;;;3.08;;
52102;SDS011;38101;53.126;6.878;2023-08-17T13:28:01;3.40;;;2.42;;
52102;SDS011;38101;53.126;6.878;2023-08-17T13:30:27;4.55;;;3.40;;
52102;SDS011;38101;53.126;6.878;2023-08-17T13:32:53;5.93;;;2.90;;
52102;SDS011;38101;53.126;6.878;2023-08-17T13:35:20;4.50;;;2.95;;
52102;SDS011;38101;53.126;6.878;2023-08-17T13:37:45;4.75;;;3.28;;
52102;SDS011;38101;53.126;6.878;2023-08-17T13:40:17;3.20;;;2.65;;
52102;SDS011;38101;53.126;6.878;2023-08-17T13:42:43;5.03;;;3.08;;
52102;SDS011;38101;53.126;6.878;2023-08-17T13:45:09;9.57;;;2.88;;
52102;SDS011;38101;53.126;6.878;2023-08-17T13:47:34;4.00;;;3.00;;
52102;SDS011;38101;53.126;6.878;2023-08-17T13:50:00;4.65;;;2.75;;
52102;SDS011;38101;53.126;6.878;2023-08-17T13:52:28;6.18;;;3.33;;
52102;SDS011;38101;53.126;6.878;2023-08-17T13:54:54;5.10;;;3.10;;
52102;SDS011;38101;53.126;6.878;2023-08-17T13:57:20;3.72;;;2.63;;
52102;SDS011;38101;53.126;6.878;2023-08-17T13:59:45;4.40;;;2.50;;
52102;SDS011;38101;53.126;6.878;2023-08-17T14:02:11;4.15;;;2.85;;
52102;SDS011;38101;53.126;6.878;2023-08-17T14:04:37;4.85;;;2.92;;
52102;SDS011;38101;53.126;6.878;2023-08-17T14:07:03;5.72;;;3.03;;
52102;SDS011;38101;53.126;6.878;2023-08-17T14:09:29;3.90;;;2.90;;
52102;SDS011;38101;53.126;6.878;2023-08-17T14:11:55;5.32;;;3.47;;
52102;SDS011;38101;53.126;6.878;2023-08-17T14:14:21;4.43;;;2.80;;
52102;SDS011;38101;53.126;6.878;2023-08-17T14:16:47;5.78;;;2.92;;
52102;SDS011;38101;53.126;6.878;2023-08-17T14:19:12;4.72;;;3.00;;
52102;SDS011;38101;53.126;6.878;2023-08-17T14:21:38;4.57;;;3.30;;
52102;SDS011;38101;53.126;6.878;2023-08-17T14:24:04;4.13;;;2.83;;
52102;SDS011;38101;53.126;6.878;2023-08-17T14:26:31;4.93;;;3.10;;
52102;SDS011;38101;53.126;6.878;2023-08-17T14:28:57;6.63;;;2.90;;
52102;SDS011;38101;53.126;6.878;2023-08-17T14:31:23;3.80;;;2.78;;
52102;SDS011;38101;53.126;6.878;2023-08-17T14:33:48;5.80;;;2.90;;
52102;SDS011;38101;53.126;6.878;2023-08-17T14:36:14;5.00;;;3.22;;
52102;SDS011;38101;53.126;6.878;2023-08-17T14:38:41;4.80;;;3.72;;
52102;SDS011;38101;53.126;6.878;2023-08-17T14:41:07;4.88;;;3.10;;
52102;SDS011;38101;53.126;6.878;2023-08-17T14:43:34;6.70;;;3.20;;
52102;SDS011;38101;53.126;6.878;2023-08-17T14:46:00;4.78;;;3.10;;
52102;SDS011;38101;53.126;6.878;2023-08-17T14:48:26;5.50;;;3.47;;
52102;SDS011;38101;53.126;6.878;2023-08-17T14:50:51;4.63;;;3.10;;
52102;SDS011;38101;53.126;6.878;2023-08-17T14:53:17;4.82;;;3.40;;